Terminal Aerodrome Forecast
Issued by NWS

Home | Current Version | Previous Version | Text Only | Print | Product List | Glossary On
Versions: 1 2 3 4 5 6 7 8 9 10 11 12 13 14 15
000
FTUS45 KVEF 201700
TAFBIH
TAF
KBIH 201738Z 2018/2118 VRB05KT P6SM SCT120
     FM202000 16017G25KT P6SM SCT100 SCT250
     FM210300 16009KT P6SM BKN250
     FM210700 33005KT P6SM BKN250=

USA.gov is the U.S. government's official web portal to all federal, state and local government web resources and services.